Latest Weather Observations for Hamilton

IDV60801

Issued at 8:32 pm EST Sunday 25 June 2017 (issued every 30 minutes, with the page automatically refreshed every 10 minutes)

About weather observations | Map of weather stations | Latest weather observations for VIC | Other Formats
Station Details ID: 090173 Name: HAMILTON AIRPORT Lat: -37.65 Lon: 142.06 Height: 241.1 m
Data from the previous 72 hours. | See also: Recent months at Hamilton
Date/Time
EST
Temp
°C
App
Temp
°C
Dew
Point
°C
Rel
Hum
%
Delta-T
°C
Wind Press
QNH
hPa
Press
MSL
hPa
Rain since
9am
mm
Dir  Spd
km/h
Gust
km/h
Spd
kts
Gust
kts
25/08:30pm 9.0 6.1 8.1 94 0.4 W 13 17 7 9 1018.8 1019.2 0.8
25/08:25pm 9.0 6.1 8.1 94 0.4 W 13 15 7 8 1018.7 1019.1 0.6
25/08:00pm 9.0 5.7 8.1 94 0.4 WNW 15 20 8 11 1018.4 1018.8 0.0
25/07:41pm 8.9 5.9 7.8 93 0.5 WNW 13 17 7 9 1018.2 1018.6 0.0
25/07:36pm 9.1 6.2 8.0 93 0.5 WNW 13 17 7 9 1018.1 1018.5 0.0
25/07:30pm 9.0 6.0 7.9 93 0.5 WNW 13 19 7 10 1018.0 1018.4 0.0
25/07:00pm 9.0 6.0 7.9 93 0.5 WNW 13 20 7 11 1017.5 1017.8 0.0
25/06:59pm 9.1 6.2 8.0 93 0.5 WNW 13 20 7 11 1017.5 1017.8 0.0
25/06:30pm 8.9 5.9 7.7 92 0.6 WNW 13 17 7 9 1017.2 1017.5 0.0
25/06:00pm 9.3 6.0 7.9 91 0.7 WNW 15 20 8 11 1016.8 1017.1 0.0
25/05:30pm 9.3 5.9 7.6 89 0.8 WNW 15 20 8 11 1016.5 1016.8 0.0
25/05:00pm 9.7 5.4 7.8 88 0.9 WNW 20 30 11 16 1016.1 1016.4 0.0
25/04:38pm 9.8 5.5 7.7 87 1.0 WNW 20 26 11 14 1016.0 1016.3 0.0
25/04:30pm 9.9 5.2 7.8 87 1.0 WNW 22 32 12 17 1015.9 1016.2 0.0
25/04:27pm 9.9 4.8 7.8 87 1.0 WNW 24 32 13 17 1015.9 1016.2 0.0
25/04:16pm 10.2 5.9 8.0 86 1.1 WNW 20 30 11 16 1015.9 1016.2 0.0
25/04:00pm 10.0 5.3 7.9 87 1.0 NW 22 28 12 15 1015.9 1016.2 0.0
25/03:40pm 9.9 5.8 8.0 88 0.9 WNW 19 24 10 13 1015.8 1016.1 0.0
25/03:30pm 10.4 6.5 8.5 88 0.9 WNW 19 28 10 15 1015.9 1016.2 0.0
25/03:00pm 10.1 5.3 7.5 84 1.3 WNW 22 30 12 16 1015.7 1016.0 0.0
25/02:30pm 10.6 4.9 6.7 77 1.9 WNW 26 33 14 18 1015.6 1015.9 0.0
25/02:00pm 11.2 5.4 6.1 71 2.4 WNW 26 37 14 20 1015.7 1016.0 0.0
25/01:30pm 10.6 6.2 6.7 77 1.9 WNW 19 24 10 13 1015.7 1016.0 0.0
25/01:00pm 10.3 4.9 6.3 76 1.9 WNW 24 32 13 17 1016.0 1016.3 0.0
25/12:30pm 10.7 5.0 6.6 76 2.0 WNW 26 37 14 20 1016.3 1016.6 0.0
25/12:00pm 10.7 4.0 5.7 71 2.3 WNW 30 41 16 22 1016.4 1016.7 0.0
25/11:30am 10.9 5.2 6.8 76 2.0 WNW 26 33 14 18 1016.8 1017.1 0.0
25/11:00am 9.4 4.0 6.5 82 1.4 WNW 24 35 13 19 1017.1 1017.4 0.0
25/10:54am 9.2 3.9 7.0 86 1.0 NW 24 35 13 19 1017.2 1017.5 0.0
25/10:30am 9.4 3.8 7.0 85 1.1 NW 26 37 14 20 1017.1 1017.4 0.0
25/10:00am 9.1 4.7 7.5 90 0.8 NW 20 30 11 16 1016.8 1017.1 0.0
25/09:30am 8.4 3.6 7.3 93 0.5 NNW 22 26 12 14 1016.6 1016.9 0.0
25/09:00am 7.5 2.9 6.6 94 0.4 NNW 20 28 11 15 1016.5 1016.8 0.2
25/08:30am 7.2 2.6 6.5 95 0.3 NNW 20 24 11 13 1016.5 1016.8 0.2
25/08:00am 6.7 2.0 6.0 95 0.3 NNW 20 24 11 13 1016.4 1016.7 0.2
25/07:52am 6.5 1.7 5.8 95 0.3 NNW 20 24 11 13 1016.4 1016.7 0.2
25/07:30am 6.6 1.9 5.9 95 0.3 NNW 20 26 11 14 1016.3 1016.6 0.2
25/07:00am 6.4 0.9 5.7 95 0.3 NNW 24 28 13 15 1016.2 1016.5 0.2
25/06:30am 6.2 1.6 5.5 95 0.3 NNW 19 24 10 13 1015.9 1016.2 0.2
25/06:21am 6.1 1.3 5.4 95 0.3 NNW 20 26 11 14 1015.7 1016.0 0.2
25/06:00am 6.2 1.5 5.3 94 0.4 NNW 19 24 10 13 1015.8 1016.1 0.2
25/05:30am 6.4 1.2 5.5 94 0.4 NNW 22 28 12 15 1015.9 1016.2 0.2
25/05:13am 6.2 1.3 5.3 94 0.4 NNW 20 28 11 15 1015.9 1016.2 0.2
25/05:00am 5.9 1.5 4.9 93 0.4 NNW 17 20 9 11 1016.0 1016.3 0.2
25/04:30am 6.0 1.6 4.8 92 0.5 NW 17 20 9 11 1016.0 1016.3 0.2
25/04:00am 6.5 1.8 5.0 90 0.7 NW 19 24 10 13 1016.2 1016.5 0.2
25/03:30am 6.5 1.6 5.0 90 0.7 NNW 20 28 11 15 1016.3 1016.6 0.2
25/03:00am 7.2 2.3 5.3 88 0.9 NW 20 26 11 14 1016.3 1016.6 0.2
25/02:30am 7.2 2.6 5.5 89 0.8 NW 19 26 10 14 1016.4 1016.7 0.2
25/02:00am 7.0 2.2 5.6 91 0.6 NW 20 26 11 14 1016.5 1016.8 0.2
25/01:30am 7.2 2.9 5.3 88 0.9 NW 17 20 9 11 1016.7 1017.0 0.2
25/01:00am 7.1 2.4 5.3 88 0.8 NW 19 28 10 15 1016.8 1017.1 0.2
25/12:30am 7.1 2.5 5.4 89 0.8 NNW 19 24 10 13 1016.8 1017.1 0.2
25/12:00am 7.2 2.5 5.3 88 0.9 NNW 19 24 10 13 1017.0 1017.3 0.2
 
Date/Time
EST
Temp
°C
App
Temp
°C
Dew
Point
°C
Rel
Hum
%
Delta-T
°C
Wind Press
QNH
hPa
Press
MSL
hPa
Rain since
9am
mm
Dir  Spd
km/h
Gust
km/h
Spd
kts
Gust
kts
24/11:30pm 7.1 2.8 5.3 88 0.8 NNW 17 22 9 12 1017.3 1017.6 0.2
24/11:00pm 7.1 2.8 5.3 88 0.8 NW 17 20 9 11 1017.4 1017.7 0.2
24/10:30pm 7.1 2.8 5.3 88 0.8 NW 17 20 9 11 1017.5 1017.8 0.2
24/10:00pm 7.1 2.8 5.1 87 0.9 NNW 17 22 9 12 1017.5 1017.8 0.2
24/09:30pm 7.3 3.3 5.1 86 1.0 NW 15 20 8 11 1017.7 1018.1 0.2
24/09:00pm 7.0 3.1 5.2 88 0.8 NNW 15 17 8 9 1017.7 1018.1 0.2
24/08:30pm 6.7 3.1 4.9 88 0.8 NNW 13 17 7 9 1017.8 1018.2 0.2
24/08:00pm 7.5 3.9 5.1 85 1.1 NW 13 17 7 9 1017.9 1018.3 0.2
24/07:30pm 7.4 3.8 5.0 85 1.1 NNW 13 17 7 9 1017.9 1018.3 0.0
24/07:00pm 7.4 3.8 5.0 85 1.1 NNW 13 17 7 9 1017.8 1018.2 0.0
24/06:30pm 7.6 4.3 4.7 82 1.3 NW 11 13 6 7 1017.7 1018.1 0.0
24/06:00pm 7.6 4.3 4.6 81 1.3 NW 11 15 6 8 1017.7 1018.1 0.0
24/05:30pm 8.0 5.1 4.8 80 1.4 NNW 9 11 5 6 1017.5 1017.8 0.0
24/05:00pm 8.3 5.4 4.9 79 1.5 NW 9 13 5 7 1017.7 1018.1 0.0
24/04:30pm 8.4 4.8 4.8 78 1.6 WNW 13 17 7 9 1017.7 1018.1 0.0
24/04:00pm 8.8 5.5 4.8 76 1.8 WNW 11 17 6 9 1017.7 1018.1 0.0
24/03:30pm 9.1 5.4 4.3 72 2.1 W 13 17 7 9 1017.7 1018.1 0.0
24/03:00pm 9.7 4.8 4.3 69 2.4 WNW 19 24 10 13 1017.7 1018.1 0.0
24/02:30pm 9.8 6.6 5.0 72 2.2 WNW 11 17 6 9 1017.7 1018.1 0.0
24/02:00pm 8.4 5.0 4.2 75 1.9 W 11 13 6 7 1017.9 1018.3 0.0
24/01:30pm 8.3 4.7 5.1 80 1.4 WSW 13 17 7 9 1018.2 1018.6 0.0
24/01:00pm 8.4 4.7 4.2 75 1.9 W 13 19 7 10 1018.6 1019.0 0.0
24/12:30pm 8.3 4.4 3.6 72 2.1 W 13 17 7 9 1018.8 1019.2 0.0
24/12:00pm 8.7 4.9 4.1 73 2.0 WNW 13 19 7 10 1019.0 1019.4 0.0
24/11:30am 9.1 5.5 2.9 65 2.7 NW 11 15 6 8 1019.3 1019.7 0.0
24/11:00am 8.3 4.6 4.5 77 1.7 NW 13 17 7 9 1019.8 1020.1 0.0
24/10:30am 8.2 4.8 6.0 86 1.0 NW 13 17 7 9 1020.0 1020.3 0.0
24/10:00am 6.9 3.7 5.2 89 0.8 NW 11 19 6 10 1019.7 1020.0 0.0
24/09:30am 6.4 3.7 5.5 94 0.4 NW 9 11 5 6 1019.4 1019.8 0.0
24/09:00am 6.0 4.6 5.4 96 0.3 NNW 2 7 1 4 1019.2 1019.6 1.8
24/08:30am 5.6 3.1 5.0 96 0.3 NW 7 9 4 5 1019.4 1019.8 1.8
24/08:00am 5.0 2.4 4.4 96 0.3 NW 7 9 4 5 1019.1 1019.5 1.8
24/07:30am 4.7 2.1 4.0 95 0.3 WNW 7 9 4 5 1018.7 1019.1 1.8
24/07:25am 4.6 1.9 3.9 95 0.3 WNW 7 7 4 4 1018.7 1019.1 1.8
24/07:07am 5.0 2.4 4.3 95 0.3 WNW 7 9 4 5 1018.4 1018.8 1.8
24/07:00am 5.3 3.0 4.6 95 0.3 NW 6 7 3 4 1018.3 1018.7 1.8
24/06:30am 5.4 2.5 4.5 94 0.4 WNW 9 19 5 10 1018.1 1018.5 1.8
24/06:00am 6.1 3.4 5.4 95 0.3 W 9 11 5 6 1017.9 1018.3 1.8
24/05:30am 6.1 3.3 5.2 94 0.4 WNW 9 9 5 5 1017.7 1018.1 1.8
24/05:00am 6.3 3.6 5.4 94 0.4 WNW 9 9 5 5 1017.5 1017.8 1.8
24/04:30am 6.4 4.2 5.4 93 0.4 W 6 7 3 4 1017.2 1017.5 1.8
24/04:00am 6.6 4.3 5.6 93 0.4 WSW 7 9 4 5 1017.3 1017.6 1.8
24/03:30am 6.8 4.1 5.7 93 0.5 SW 9 13 5 7 1017.1 1017.4 1.8
24/03:00am 7.1 3.7 6.0 93 0.5 SSW 13 17 7 9 1017.1 1017.4 1.8
24/02:30am 7.3 4.0 6.6 95 0.3 SSW 13 19 7 10 1017.1 1017.4 1.8
24/02:00am 7.2 3.9 6.5 95 0.3 SSW 13 17 7 9 1016.9 1017.2 1.8
24/01:34am 7.4 3.0 6.5 94 0.4 SSW 19 22 10 12 1016.8 1017.1 1.8
24/01:30am 7.5 3.1 6.6 94 0.4 SSW 19 24 10 13 1016.8 1017.1 1.8
24/01:06am 7.7 3.2 7.0 95 0.3 SSW 20 24 11 13 1016.8 1017.1 1.8
24/01:00am 7.7 2.8 7.0 95 0.3 SSW 22 28 12 15 1016.9 1017.2 1.8
24/12:47am 7.9 3.4 7.1 95 0.4 S 20 26 11 14 1016.8 1017.1 1.4
24/12:30am 8.2 3.4 7.3 94 0.4 SSW 22 33 12 18 1016.7 1017.0 0.8
24/12:00am 8.6 5.6 7.7 94 0.4 SSW 13 20 7 11 1016.5 1016.8 0.8
 
Date/Time
EST
Temp
°C
App
Temp
°C
Dew
Point
°C
Rel
Hum
%
Delta-T
°C
Wind Press
QNH
hPa
Press
MSL
hPa
Rain since
9am
mm
Dir  Spd
km/h
Gust
km/h
Spd
kts
Gust
kts
23/11:30pm 9.0 6.1 8.2 95 0.4 WSW 13 17 7 9 1016.6 1016.9 0.8
23/11:20pm 9.1 5.9 8.3 95 0.4 WSW 15 24 8 13 1016.6 1016.9 0.8
23/11:03pm 9.2 6.7 8.3 94 0.4 WSW 11 15 6 8 1016.5 1016.8 0.6
23/11:00pm 9.2 6.7 8.3 94 0.4 WSW 11 15 6 8 1016.5 1016.8 0.6
23/10:33pm 9.2 6.3 8.3 94 0.4 W 13 17 7 9 1016.4 1016.7 0.4
23/10:30pm 9.2 6.3 8.3 94 0.4 W 13 17 7 9 1016.4 1016.7 0.4
23/10:28pm 9.3 6.5 8.4 94 0.4 W 13 17 7 9 1016.4 1016.7 0.2
23/10:00pm 9.3 6.0 8.2 93 0.5 WNW 15 20 8 11 1016.3 1016.6 0.2
23/09:53pm 9.3 6.0 8.2 93 0.5 WNW 15 19 8 10 1016.2 1016.5 0.2
23/09:30pm 9.6 6.4 8.5 93 0.5 WNW 15 19 8 10 1016.1 1016.4 0.2
23/09:17pm 9.7 6.5 8.5 92 0.6 W 15 20 8 11 1016.0 1016.3 0.2
23/09:00pm 9.9 6.3 8.5 91 0.7 W 17 22 9 12 1015.9 1016.2 0.0
23/08:48pm 10.0 7.2 8.4 90 0.8 W 13 17 7 9 1015.9 1016.2 0.0
23/08:30pm 10.0 7.1 8.3 89 0.8 W 13 19 7 10 1015.7 1016.0 0.0
23/08:00pm 9.7 6.8 8.0 89 0.8 W 13 15 7 8 1015.6 1015.9 0.0
23/07:30pm 9.0 6.2 7.1 88 0.9 WNW 11 15 6 8 1015.1 1015.5 0.0
23/07:00pm 8.6 5.4 6.7 88 0.9 WNW 13 17 7 9 1014.9 1015.3 0.0
23/06:30pm 9.6 6.5 7.2 85 1.1 WNW 13 17 7 9 1014.6 1015.0 0.0
23/06:00pm 10.1 7.2 8.0 87 1.0 WNW 13 17 7 9 1014.2 1014.6 0.0
23/05:30pm 11.2 8.4 8.6 84 1.3 W 13 17 7 9 1014.1 1014.5 0.0
23/05:00pm 11.6 8.8 8.5 81 1.5 W 13 19 7 10 1014.1 1014.5 0.0
23/04:30pm 11.9 8.3 8.2 78 1.8 WNW 17 22 9 12 1014.1 1014.5 0.0
23/04:00pm 12.1 7.8 7.8 75 2.1 WNW 20 28 11 15 1014.2 1014.6 0.0
23/03:30pm 12.1 8.1 8.4 78 1.9 WNW 19 24 10 13 1014.2 1014.6 0.0
23/03:00pm 11.6 7.3 7.9 78 1.8 WNW 20 28 11 15 1014.2 1014.6 0.0
23/02:30pm 11.5 6.7 7.4 76 2.0 NW 22 30 12 16 1014.2 1014.6 0.0
23/02:00pm 12.5 7.0 7.6 72 2.4 NW 26 33 14 18 1014.1 1014.5 0.0
23/01:30pm 12.2 7.0 7.3 72 2.4 NW 24 32 13 17 1014.5 1014.9 0.0
23/01:00pm 11.5 7.2 7.0 74 2.2 NW 19 24 10 13 1014.9 1015.3 0.0
23/12:30pm 10.9 6.0 7.0 77 1.9 NNW 22 28 12 15 1015.1 1015.5 0.0
23/12:00pm 10.1 5.5 6.6 79 1.7 NNW 20 24 11 13 1015.7 1016.0 0.0
23/11:30am 9.2 4.1 5.9 80 1.5 NNW 22 26 12 14 1016.4 1016.7 0.0
23/11:00am 8.6 3.0 5.5 81 1.4 NNW 24 30 13 16 1016.8 1017.1 0.0
23/10:30am 8.5 2.9 5.6 82 1.3 NNW 24 30 13 16 1016.9 1017.2 0.0
23/10:00am 8.3 1.9 5.4 82 1.3 N 28 33 15 18 1016.8 1017.1 0.0
23/09:30am 7.2 1.9 5.0 86 1.0 N 22 30 12 16 1017.2 1017.5 0.0
23/09:00am 6.5 1.6 5.0 90 0.7 N 20 26 11 14 1017.4 1017.7 0.0
23/08:30am 5.7 0.7 4.5 92 0.5 NNW 20 24 11 13 1017.1 1017.4 0.0
23/08:00am 5.3 -0.1 4.4 94 0.4 N 22 28 12 15 1017.1 1017.4 0.0
23/07:30am 5.3 -0.1 4.4 94 0.4 N 22 28 12 15 1017.2 1017.5 0.0
23/07:00am 5.2 0.1 4.3 94 0.4 N 20 26 11 14 1017.3 1017.6 0.0
23/06:30am 5.5 0.1 4.6 94 0.4 N 22 28 12 15 1017.3 1017.6 0.0
23/06:00am 5.5 0.2 4.8 95 0.3 N 22 26 12 14 1017.4 1017.7 0.0
23/05:30am 5.3 0.5 4.4 94 0.4 N 19 22 10 12 1017.5 1017.8 0.0
23/05:00am 5.6 0.6 4.7 94 0.4 N 20 22 11 12 1017.7 1018.1 0.0
23/04:30am 6.0 1.0 4.8 92 0.5 N 20 22 11 12 1018.0 1018.4 0.0
23/04:00am 6.7 1.8 5.3 91 0.6 N 20 26 11 14 1018.2 1018.6 0.0
23/03:30am 7.3 1.4 5.8 90 0.7 N 26 33 14 18 1018.5 1018.9 0.0
23/03:00am 7.5 2.4 5.8 89 0.8 N 22 28 12 15 1018.7 1019.1 0.0
23/02:30am 7.6 2.2 6.2 91 0.6 N 24 30 13 16 1019.0 1019.4 0.0
23/02:00am 7.3 2.6 5.9 91 0.6 N 20 24 11 13 1019.4 1019.8 0.0
23/01:30am 7.6 3.1 6.1 90 0.7 NNW 19 24 10 13 1019.8 1020.1 0.0
23/01:00am 8.0 3.3 6.1 88 0.9 N 20 24 11 13 1020.0 1020.3 0.0
23/12:30am 8.3 3.7 6.3 87 0.9 N 20 26 11 14 1020.3 1020.6 0.0
23/12:00am 8.5 4.4 6.3 86 1.0 N 17 20 9 11 1020.8 1021.1 0.0
 
Date/Time
EST
Temp
°C
App
Temp
°C
Dew
Point
°C
Rel
Hum
%
Delta-T
°C
Wind Press
QNH
hPa
Press
MSL
hPa
Rain since
9am
mm
Dir  Spd
km/h
Gust
km/h
Spd
kts
Gust
kts
22/11:30pm 8.9 5.2 6.5 85 1.1 N 15 19 8 10 1021.3 1021.7 0.0
22/11:00pm 8.9 4.9 6.5 85 1.1 N 17 22 9 12 1021.6 1022.0 0.0
22/10:30pm 9.0 4.6 6.6 85 1.1 N 19 20 10 11 1021.6 1022.0 0.0
22/10:00pm 9.0 5.4 6.8 86 1.0 N 15 20 8 11 1021.9 1022.3 0.0
22/09:30pm 9.2 5.7 7.0 86 1.0 N 15 19 8 10 1022.2 1022.6 0.0
22/09:00pm 9.1 6.0 7.1 87 0.9 N 13 17 7 9 1022.4 1022.8 0.0

Other Formats:

Comma delimited format used in spreadsheet applications
http://www.bom.gov.au/fwo/IDV60801/IDV60801.94829.axf

JavaScript Object Notation format (JSON) in row-major order
http://www.bom.gov.au/fwo/IDV60801/IDV60801.94829.json